Time;durP1;ratioP1;P1;durP2;ratioP2;P2;SDS_P1;SDS_P2;PMS_P1;PMS_P2;Temp;Humidity;BMP_temperature;BMP_pressure;BME280_temperature;BME280_humidity;BME280_pressure;Samples;Min_cycle;Max_cycle;Signal;HPM_P1;HPM_P2
2023/04/10 00:00:23;;;;;;;7.85;5.20;;;;;;;8.51;66.00;102038.69;4946377;28;20491;-77
2023/04/10 00:02:48;;;;;;;7.50;4.75;;;;;;;8.53;66.11;102036.97;4946625;28;20049;-77
2023/04/10 00:05:15;;;;;;;8.00;4.90;;;;;;;8.53;65.86;102036.97;4949807;28;20340;-77
2023/04/10 00:07:40;;;;;;;9.15;5.40;;;;;;;8.53;66.23;102034.38;4944549;28;20046;-77
2023/04/10 00:10:06;;;;;;;7.47;4.80;;;;;;;8.52;65.97;102019.66;4944113;28;20028;-77
2023/04/10 00:12:31;;;;;;;7.82;4.88;;;;;;;8.53;66.19;102016.22;4939750;28;20031;-77
2023/04/10 00:14:57;;;;;;;8.50;5.50;;;;;;;8.54;66.89;102011.88;4945335;28;20077;-77
2023/04/10 00:17:22;;;;;;;7.15;4.72;;;;;;;8.53;67.11;102000.66;4945069;28;20067;-77
2023/04/10 00:19:47;;;;;;;7.35;4.75;;;;;;;8.51;67.33;102002.38;4943719;28;20031;-77
2023/04/10 00:22:13;;;;;;;9.18;5.25;;;;;;;8.50;67.16;101992.84;4939849;28;20043;-77
2023/04/10 00:24:38;;;;;;;9.48;5.53;;;;;;;8.47;66.94;101988.47;4933270;28;20035;-77
2023/04/10 00:27:03;;;;;;;8.90;5.43;;;;;;;8.45;66.74;101991.94;4942783;28;20133;-77
2023/04/10 00:29:29;;;;;;;8.20;5.22;;;;;;;8.44;66.90;101991.09;4940531;28;20035;-77
2023/04/10 00:31:54;;;;;;;7.93;5.07;;;;;;;8.44;66.95;101990.22;4939763;28;20035;-77
2023/04/10 00:34:19;;;;;;;8.25;5.05;;;;;;;8.43;66.90;101993.66;4939135;28;20355;-77
2023/04/10 00:36:48;;;;;;;8.75;5.18;;;;;;;8.41;67.06;101980.72;4940404;28;20089;-77
2023/04/10 00:39:13;;;;;;;8.45;5.28;;;;;;;8.38;67.32;101978.09;4942767;28;20039;-77
2023/04/10 00:41:39;;;;;;;8.52;5.25;;;;;;;8.37;67.28;101970.34;4944246;28;20039;-77
2023/04/10 00:44:04;;;;;;;7.55;4.97;;;;;;;8.34;67.25;101969.47;4944077;28;20042;-77
2023/04/10 00:46:30;;;;;;;8.07;5.15;;;;;;;8.32;67.34;101968.59;4944045;28;20533;-77
2023/04/10 00:48:56;;;;;;;9.43;5.30;;;;;;;8.30;67.25;101965.13;4942556;28;20027;-78
2023/04/10 00:51:21;;;;;;;8.70;5.20;;;;;;;8.28;68.02;101959.06;4945022;28;20078;-78
2023/04/10 00:53:51;;;;;;;8.10;5.30;;;;;;;8.27;67.59;101962.53;4946946;28;20028;-77
2023/04/10 00:56:18;;;;;;;8.57;5.40;;;;;;;8.24;67.38;101959.06;4945639;28;20039;-77
2023/04/10 00:58:43;;;;;;;8.00;5.15;;;;;;;8.23;67.59;101960.78;4947611;28;20228;-77
2023/04/10 01:01:08;;;;;;;8.68;5.35;;;;;;;8.22;67.28;101953.88;4945523;28;20550;-77
2023/04/10 01:03:34;;;;;;;9.55;5.38;;;;;;;8.18;67.52;101949.56;4938786;28;20387;-77
2023/04/10 01:06:14;;;;;;;9.40;5.10;;;;;;;8.17;67.40;101955.59;4947613;28;20041;-77
2023/04/10 01:08:59;;;;;;;8.05;5.28;;;;;;;8.15;66.64;101950.41;4949928;28;20076;-77
2023/04/10 01:11:47;;;;;;;8.43;5.40;;;;;;;8.14;66.81;101948.66;4947263;28;20031;-77
2023/04/10 01:14:29;;;;;;;8.32;5.15;;;;;;;8.13;67.00;101952.13;4942217;28;20035;-77
2023/04/10 01:17:06;;;;;;;8.75;5.07;;;;;;;8.13;67.31;101951.28;4948314;28;20130;-77
2023/04/10 01:19:59;;;;;;;8.00;5.22;;;;;;;8.12;66.50;101952.13;4944989;28;20045;-77
2023/04/10 01:23:02;;;;;;;8.27;5.13;;;;;;;8.11;66.81;101953.00;4949368;28;20034;-77
2023/04/10 01:25:47;;;;;;;8.32;5.35;;;;;;;8.12;66.99;101941.75;4949351;28;20568;-77
2023/04/10 01:28:18;;;;;;;8.98;5.30;;;;;;;8.10;67.01;101938.28;4956012;28;20055;-77
2023/04/10 01:30:47;;;;;;;7.50;4.90;;;;;;;8.09;67.35;101945.22;4956358;28;20031;-77
2023/04/10 01:33:16;;;;;;;8.57;5.57;;;;;;;8.07;67.46;101940.88;4955791;28;20027;-77
2023/04/10 01:35:46;;;;;;;8.68;5.47;;;;;;;8.05;67.57;101938.28;4952296;28;20118;-77
2023/04/10 01:38:14;;;;;;;8.90;5.50;;;;;;;8.04;67.81;101940.00;4955166;28;20078;-77
2023/04/10 01:40:47;;;;;;;9.13;5.07;;;;;;;8.04;67.76;101941.75;4970639;28;20031;-77
2023/04/10 01:43:13;;;;;;;8.73;5.28;;;;;;;8.02;68.33;101939.16;4953614;28;20106;-77
2023/04/10 01:45:42;;;;;;;10.82;5.72;;;;;;;8.00;68.58;101929.63;4954965;28;20058;-77
2023/04/10 01:48:08;;;;;;;9.88;5.53;;;;;;;7.99;69.03;101935.69;4955799;28;20487;-77
2023/04/10 01:50:34;;;;;;;9.07;5.35;;;;;;;7.98;68.66;101939.13;4955537;28;20031;-77
2023/04/10 01:53:02;;;;;;;8.63;5.45;;;;;;;7.95;68.68;101927.03;4950263;28;20039;-77
2023/04/10 01:55:28;;;;;;;8.55;5.32;;;;;;;7.95;69.00;101929.63;4945112;28;20023;-77
2023/04/10 01:57:54;;;;;;;8.38;5.43;;;;;;;7.91;68.64;101920.09;4949829;28;20115;-77
2023/04/10 02:00:19;;;;;;;8.82;5.38;;;;;;;7.89;69.73;101919.22;4943936;28;20023;-77
2023/04/10 02:02:45;;;;;;;8.77;5.72;;;;;;;7.88;68.72;101909.72;4944763;28;20030;-77
2023/04/10 02:05:10;;;;;;;9.60;5.70;;;;;;;7.86;68.79;101914.91;4948252;28;20043;-77
2023/04/10 02:07:43;;;;;;;9.23;5.60;;;;;;;7.84;68.90;101905.41;4951879;28;20054;-77
2023/04/10 02:10:08;;;;;;;8.00;5.20;;;;;;;7.82;68.83;101901.97;4945693;28;20078;-77
2023/04/10 02:13:08;;;;;;;8.40;5.20;;;;;;;7.82;68.02;101899.38;4941743;28;20043;-77
2023/04/10 02:15:35;;;;;;;7.93;5.30;;;;;;;7.78;69.49;101895.03;4915307;28;20151;-77
2023/04/10 02:18:05;;;;;;;8.13;5.45;;;;;;;7.77;69.52;101898.47;4948023;28;20024;-77
2023/04/10 02:20:31;;;;;;;7.80;5.28;;;;;;;7.75;69.54;101894.16;4943182;28;20023;-77
2023/04/10 02:23:02;;;;;;;9.02;5.47;;;;;;;7.73;68.92;101890.69;4945067;28;20374;-77
2023/04/10 02:25:30;;;;;;;9.50;5.93;;;;;;;7.72;69.48;101891.56;4942719;28;20453;-77
2023/04/10 02:27:55;;;;;;;9.05;5.97;;;;;;;7.69;69.09;101885.50;4946225;28;20055;-77
2023/04/10 02:30:21;;;;;;;8.38;5.55;;;;;;;7.65;69.39;101884.63;4943206;28;20034;-77
2023/04/10 02:32:46;;;;;;;9.52;5.88;;;;;;;7.66;69.65;101893.25;4943446;28;20031;-77
2023/04/10 02:35:11;;;;;;;9.05;5.57;;;;;;;7.63;69.64;101881.19;4943103;28;20044;-77
2023/04/10 02:37:36;;;;;;;9.68;6.20;;;;;;;7.63;69.45;101881.19;4943656;28;20387;-77
2023/04/10 02:40:02;;;;;;;8.90;5.78;;;;;;;7.60;69.98;101881.16;4941886;28;20078;-77
2023/04/10 02:42:27;;;;;;;8.90;5.78;;;;;;;7.60;69.32;101881.16;4944720;28;20023;-77
2023/04/10 02:44:52;;;;;;;8.05;5.43;;;;;;;7.58;69.34;101881.16;4945300;28;20111;-77
2023/04/10 02:47:18;;;;;;;7.53;5.30;;;;;;;7.58;69.84;101886.34;4944995;28;20041;-77
2023/04/10 02:49:43;;;;;;;9.05;5.70;;;;;;;7.57;69.36;101878.56;4940723;28;20023;-77
2023/04/10 02:52:08;;;;;;;8.25;5.60;;;;;;;7.57;69.72;101881.16;4945573;28;20489;-77
2023/04/10 02:54:34;;;;;;;8.32;5.43;;;;;;;7.54;69.42;101875.94;4944628;28;20434;-77
2023/04/10 02:57:00;;;;;;;9.18;5.90;;;;;;;7.53;69.70;101876.81;4944247;28;20027;-77
2023/04/10 02:59:26;;;;;;;9.38;6.05;;;;;;;7.52;70.29;101872.47;4939432;28;20114;-77
2023/04/10 03:01:51;;;;;;;8.77;5.57;;;;;;;7.51;70.42;101870.78;4944870;28;20049;-77
2023/04/10 03:04:18;;;;;;;9.35;5.93;;;;;;;7.49;69.96;101868.16;4942898;28;20390;-77
2023/04/10 03:06:43;;;;;;;8.65;5.57;;;;;;;7.47;70.15;101874.22;4946128;28;20497;-77
2023/04/10 03:09:08;;;;;;;9.05;5.78;;;;;;;7.47;70.03;101874.22;4951105;28;20027;-77
2023/04/10 03:11:34;;;;;;;8.82;5.63;;;;;;;7.46;69.94;101877.66;4945599;28;20447;-77
2023/04/10 03:13:59;;;;;;;7.35;5.13;;;;;;;7.43;69.83;101879.38;4951050;28;20035;-77
2023/04/10 03:16:25;;;;;;;7.85;5.13;;;;;;;7.42;70.19;101879.38;4946215;28;20035;-77
2023/04/10 03:18:51;;;;;;;8.20;5.45;;;;;;;7.40;69.44;101883.69;4944974;28;20023;-77
2023/04/10 03:21:17;;;;;;;8.95;5.45;;;;;;;7.39;69.86;101885.38;4943899;28;20105;-77
2023/04/10 03:23:42;;;;;;;8.52;5.50;;;;;;;7.37;69.22;101884.50;4942443;28;20102;-77
2023/04/10 03:26:07;;;;;;;8.90;5.50;;;;;;;7.36;69.08;101884.53;4941413;28;20032;-77
2023/04/10 03:28:35;;;;;;;8.15;5.32;;;;;;;7.34;69.20;101883.66;4942029;28;20063;-77
2023/04/10 03:31:01;;;;;;;8.60;5.30;;;;;;;7.34;69.80;101873.28;4943322;28;20554;-77
2023/04/10 03:33:26;;;;;;;9.25;5.45;;;;;;;7.32;69.82;101882.78;4943943;28;20031;-77
2023/04/10 03:35:52;;;;;;;8.43;5.43;;;;;;;7.29;69.86;101875.88;4944060;28;20035;-77
2023/04/10 03:38:17;;;;;;;8.77;5.63;;;;;;;7.27;69.43;101880.16;4941538;28;20138;-77
2023/04/10 03:40:43;;;;;;;8.82;5.43;;;;;;;7.22;69.81;101867.22;4943619;28;20110;-77
2023/04/10 03:43:08;;;;;;;8.50;5.50;;;;;;;7.20;69.78;101865.44;4944350;28;20391;-77
2023/04/10 03:45:33;;;;;;;8.73;5.10;;;;;;;7.17;70.73;101863.72;4941008;28;20022;-77
2023/04/10 03:47:59;;;;;;;9.20;5.35;;;;;;;7.14;69.97;101862.00;4947445;28;20467;-77
2023/04/10 03:50:24;;;;;;;8.77;5.43;;;;;;;7.12;70.59;101858.53;4940201;28;20030;-77
2023/04/10 03:52:50;;;;;;;9.82;5.65;;;;;;;7.10;70.19;101857.66;4939268;28;20099;-77
2023/04/10 03:55:17;;;;;;;8.88;5.80;;;;;;;7.05;70.07;101856.75;4942862;28;20061;-77
2023/04/10 03:57:44;;;;;;;8.52;5.75;;;;;;;7.03;70.22;101853.28;4945153;28;20031;-77
2023/04/10 04:00:11;;;;;;;8.82;5.57;;;;;;;7.01;70.96;101852.41;4942627;28;20026;-77
2023/04/10 04:02:36;;;;;;;9.77;5.80;;;;;;;6.99;69.94;101846.41;4942895;28;20119;-77
2023/04/10 04:05:01;;;;;;;10.52;5.30;;;;;;;6.95;70.58;101845.50;4941204;28;20508;-77
2023/04/10 04:07:26;;;;;;;8.90;5.45;;;;;;;6.94;70.29;101845.50;4942153;28;20031;-77
2023/04/10 04:09:52;;;;;;;9.13;5.65;;;;;;;6.90;70.84;101843.75;4941797;28;20551;-77
2023/04/10 04:12:17;;;;;;;8.68;5.32;;;;;;;6.88;71.15;101837.69;4943625;28;20038;-77
2023/04/10 04:14:43;;;;;;;8.57;5.57;;;;;;;6.83;70.47;101833.34;4944531;28;20055;-77
2023/04/10 04:17:09;;;;;;;9.70;5.57;;;;;;;6.78;71.30;101840.22;4944075;28;20045;-77
2023/04/10 04:19:34;;;;;;;8.75;5.38;;;;;;;6.73;71.49;101838.47;4944001;28;20467;-77
2023/04/10 04:21:59;;;;;;;8.77;5.40;;;;;;;6.68;71.53;101835.84;4941963;28;20053;-77
2023/04/10 04:24:25;;;;;;;9.90;5.88;;;;;;;6.66;70.97;101840.16;4943839;28;20090;-77
2023/04/10 04:26:50;;;;;;;9.30;5.53;;;;;;;6.62;71.67;101833.22;4942344;28;20075;-77
2023/04/10 04:29:15;;;;;;;8.80;5.78;;;;;;;6.60;71.51;101834.94;4940798;28;20070;-77
2023/04/10 04:31:40;;;;;;;9.75;5.32;;;;;;;6.57;71.24;101827.16;4928190;28;20403;-77
2023/04/10 04:34:06;;;;;;;9.82;5.68;;;;;;;6.53;71.66;101832.31;4944326;28;20103;-77
2023/04/10 04:36:31;;;;;;;8.60;5.53;;;;;;;6.52;71.61;101824.53;4943964;28;20406;-77
2023/04/10 04:38:56;;;;;;;7.18;5.32;;;;;;;6.50;71.70;101821.94;4942063;28;20027;-77
2023/04/10 04:41:21;;;;;;;9.55;6.00;;;;;;;6.47;71.17;101824.53;4939660;28;20554;-77
2023/04/10 04:43:48;;;;;;;9.23;5.57;;;;;;;6.46;72.09;101819.31;4938819;28;20043;-77
2023/04/10 04:46:13;;;;;;;9.05;5.68;;;;;;;6.47;72.05;101831.41;4944023;28;20027;-77
2023/04/10 04:48:38;;;;;;;8.63;5.55;;;;;;;6.46;71.49;101840.88;4942532;28;20042;-77
2023/04/10 04:51:06;;;;;;;9.63;5.85;;;;;;;6.44;71.73;101837.41;4942713;28;20471;-77
2023/04/10 04:53:32;;;;;;;10.18;6.22;;;;;;;6.42;72.08;101828.78;4941547;28;20035;-77
2023/04/10 04:55:57;;;;;;;9.45;5.90;;;;;;;6.41;71.92;101816.72;4940104;28;20093;-77
2023/04/10 04:58:23;;;;;;;8.70;5.80;;;;;;;6.42;72.19;101823.59;4944347;28;20086;-77
2023/04/10 05:00:50;;;;;;;9.82;5.43;;;;;;;6.43;72.26;101816.72;4942033;28;20144;-77
2023/04/10 05:03:15;;;;;;;8.07;5.35;;;;;;;6.46;72.15;101814.16;4941386;28;20023;-77
2023/04/10 05:05:41;;;;;;;8.32;5.57;;;;;;;6.47;72.32;101811.59;4945120;28;20145;-77
2023/04/10 05:08:06;;;;;;;8.68;5.45;;;;;;;6.50;71.42;101814.19;4949680;28;20038;-77
2023/04/10 05:10:31;;;;;;;8.55;5.50;;;;;;;6.52;72.24;101812.47;4944566;28;20490;-77
2023/04/10 05:12:57;;;;;;;8.43;5.07;;;;;;;6.54;72.16;101807.31;4944626;28;20050;-77
2023/04/10 05:15:22;;;;;;;8.98;5.57;;;;;;;6.56;72.39;101800.44;4942752;28;20026;-77
2023/04/10 05:17:49;;;;;;;9.95;5.97;;;;;;;6.57;72.19;101790.97;4943965;28;20045;-77
2023/04/10 05:20:15;;;;;;;9.00;5.47;;;;;;;6.60;72.04;101796.16;4940885;28;20023;-77
2023/04/10 05:22:40;;;;;;;9.65;5.25;;;;;;;6.63;72.06;101798.75;4948703;28;20423;-77
2023/04/10 05:25:06;;;;;;;7.90;5.35;;;;;;;6.66;71.44;101794.47;4951406;28;20110;-77
2023/04/10 05:27:31;;;;;;;9.13;5.43;;;;;;;6.72;72.17;101797.97;4949276;28;20434;-77
2023/04/10 05:29:56;;;;;;;8.82;5.38;;;;;;;6.75;71.99;101790.19;4946990;28;20024;-77
2023/04/10 05:32:22;;;;;;;9.13;5.28;;;;;;;6.80;71.44;101797.16;4946454;28;20105;-77
2023/04/10 05:34:47;;;;;;;8.65;5.40;;;;;;;6.82;71.57;101779.91;4952799;28;20483;-77
2023/04/10 05:37:12;;;;;;;9.55;5.85;;;;;;;6.87;71.37;101785.09;4952701;28;20479;-77
2023/04/10 05:39:38;;;;;;;9.02;5.72;;;;;;;6.93;71.67;101792.03;4951258;28;20030;-77
2023/04/10 05:42:03;;;;;;;9.07;5.80;;;;;;;6.99;70.86;101787.75;4955086;28;20027;-77
2023/04/10 05:44:29;;;;;;;9.10;5.68;;;;;;;7.02;70.97;101786.88;4954554;28;20487;-77
2023/04/10 05:46:55;;;;;;;8.23;5.20;;;;;;;7.08;70.18;101789.50;4955984;28;20023;-77
2023/04/10 05:49:20;;;;;;;9.57;5.63;;;;;;;7.13;70.72;101784.34;4951899;28;20020;-77
2023/04/10 05:51:49;;;;;;;8.60;5.57;;;;;;;7.17;70.56;101785.22;4955099;28;20039;-77
2023/04/10 05:54:17;;;;;;;8.57;5.55;;;;;;;7.22;70.07;101786.97;4948145;28;20380;-77
2023/04/10 05:56:42;;;;;;;8.23;5.30;;;;;;;7.28;71.11;101792.16;4949536;28;20031;-77
2023/04/10 05:59:07;;;;;;;8.15;5.32;;;;;;;7.35;70.88;101787.00;4945629;28;20082;-77
2023/04/10 06:01:33;;;;;;;8.32;5.05;;;;;;;7.38;70.36;101787.88;4941435;28;20023;-77
2023/04/10 06:03:58;;;;;;;9.32;5.80;;;;;;;7.42;70.49;101789.63;4942612;28;20039;-77
2023/04/10 06:06:25;;;;;;;7.45;4.95;;;;;;;7.48;70.06;101790.50;4941769;28;20031;-77
2023/04/10 06:08:50;;;;;;;9.15;5.57;;;;;;;7.54;69.74;101787.91;4944911;28;20015;-77
2023/04/10 06:11:15;;;;;;;9.25;5.80;;;;;;;7.60;69.99;101786.19;4947116;28;20035;-77
2023/04/10 06:13:41;;;;;;;8.95;5.55;;;;;;;7.66;68.38;101787.06;4950334;28;20031;-77
2023/04/10 06:16:07;;;;;;;8.40;5.40;;;;;;;7.70;69.19;101787.06;4952522;28;20057;-77
2023/04/10 06:18:32;;;;;;;9.23;5.38;;;;;;;7.74;68.69;101785.38;4952936;28;20039;-77
2023/04/10 06:21:00;;;;;;;10.25;5.90;;;;;;;7.79;68.89;101783.63;4942216;28;22123;-77
2023/04/10 06:23:26;;;;;;;10.48;6.13;;;;;;;7.84;69.37;101787.09;4948269;28;20027;-77
2023/04/10 06:25:52;;;;;;;9.65;5.82;;;;;;;7.88;68.45;101782.78;4946965;28;20019;-77
2023/04/10 06:28:17;;;;;;;8.82;5.82;;;;;;;7.95;69.50;101779.34;4943066;28;20039;-77
2023/04/10 06:30:42;;;;;;;8.90;5.80;;;;;;;8.01;69.30;101781.94;4945817;28;20117;-77
2023/04/10 06:33:07;;;;;;;9.13;5.53;;;;;;;8.07;68.44;101772.41;4943232;28;20023;-77
2023/04/10 06:35:33;;;;;;;9.88;5.80;;;;;;;8.11;69.13;101771.56;4943875;28;20028;-77
2023/04/10 06:37:58;;;;;;;8.45;5.55;;;;;;;8.16;68.90;101769.84;4941545;28;20032;-77
2023/04/10 06:40:24;;;;;;;10.15;6.20;;;;;;;8.22;68.65;101762.03;4945499;28;20023;-77
2023/04/10 06:42:49;;;;;;;9.98;6.07;;;;;;;8.27;68.04;101765.50;4946693;28;20035;-77
2023/04/10 06:45:14;;;;;;;9.13;5.55;;;;;;;8.33;67.58;101757.72;4947389;28;20027;-77
2023/04/10 06:47:40;;;;;;;9.88;5.43;;;;;;;8.38;67.28;101762.00;4946007;28;20035;-77
2023/04/10 06:50:05;;;;;;;8.80;5.85;;;;;;;8.44;67.20;101756.81;4944147;28;20554;-77
2023/04/10 06:52:31;;;;;;;8.07;5.28;;;;;;;8.50;67.88;101749.06;4950453;28;20458;-77
2023/04/10 06:54:56;;;;;;;9.63;5.50;;;;;;;8.55;67.63;101743.88;4949165;28;20042;-77
2023/04/10 06:57:22;;;;;;;8.75;5.60;;;;;;;8.61;67.60;101749.91;4943896;28;20031;-77
2023/04/10 06:59:47;;;;;;;9.63;5.82;;;;;;;8.67;68.21;101733.44;4943348;28;20023;-77
2023/04/10 07:02:12;;;;;;;8.73;5.57;;;;;;;8.71;67.57;101729.97;4945768;28;20042;-77
2023/04/10 07:04:37;;;;;;;9.93;5.70;;;;;;;8.78;68.17;101725.63;4950972;28;20065;-77
2023/04/10 07:07:04;;;;;;;10.02;6.07;;;;;;;8.85;67.32;101713.50;4953468;28;20102;-78
2023/04/10 07:09:29;;;;;;;8.23;5.20;;;;;;;8.90;67.20;101710.00;4948760;28;20019;-77
2023/04/10 07:11:55;;;;;;;9.00;5.72;;;;;;;8.94;66.99;101703.94;4952516;28;20034;-77
2023/04/10 07:14:20;;;;;;;8.85;5.80;;;;;;;9.02;66.60;101703.03;4949021;28;20075;-78
2023/04/10 07:16:46;;;;;;;9.35;5.75;;;;;;;9.08;66.29;101705.59;4955875;28;20402;-77
2023/04/10 07:19:11;;;;;;;7.65;4.90;;;;;;;9.13;64.84;101698.66;4952383;28;20043;-77
2023/04/10 07:21:36;;;;;;;8.23;5.63;;;;;;;9.18;65.14;101694.28;4951825;28;20028;-77
2023/04/10 07:24:02;;;;;;;8.43;5.15;;;;;;;9.23;65.22;101687.31;4951979;28;20043;-77
2023/04/10 07:26:27;;;;;;;7.97;5.20;;;;;;;9.28;63.94;101684.72;4949515;28;20031;-77
2023/04/10 07:28:52;;;;;;;8.90;5.32;;;;;;;9.34;65.24;101683.81;4954461;28;20027;-77
2023/04/10 07:31:18;;;;;;;8.25;5.45;;;;;;;9.40;64.12;101673.34;4951240;28;20067;-77
2023/04/10 07:33:45;;;;;;;7.20;5.13;;;;;;;9.46;64.32;101669.88;4952483;28;20042;-77
2023/04/10 07:36:11;;;;;;;8.38;5.38;;;;;;;9.51;65.21;101675.88;4953634;28;20031;-77
2023/04/10 07:38:37;;;;;;;7.57;5.00;;;;;;;9.58;65.10;101661.97;4952224;28;20034;-77
2023/04/10 07:41:03;;;;;;;11.10;5.50;;;;;;;9.65;64.43;101658.44;4942092;28;20046;-77
2023/04/10 07:43:28;;;;;;;8.32;5.43;;;;;;;9.71;64.30;101660.97;4951350;28;20395;-77
2023/04/10 07:45:55;;;;;;;9.10;5.50;;;;;;;9.77;64.44;101654.88;4950198;28;20039;-77
2023/04/10 07:48:20;;;;;;;8.27;5.18;;;;;;;9.83;62.36;101651.34;4949864;28;20390;-77
2023/04/10 07:50:45;;;;;;;8.25;5.55;;;;;;;9.89;62.50;101648.69;4948637;28;20039;-77
2023/04/10 07:53:10;;;;;;;8.07;5.50;;;;;;;9.95;62.41;101645.16;4949095;28;20657;-77
2023/04/10 07:55:41;;;;;;;9.00;5.47;;;;;;;10.01;62.30;101639.91;4948849;28;20035;-77
2023/04/10 07:58:06;;;;;;;8.73;5.25;;;;;;;10.08;61.99;101636.34;4953301;28;20031;-78
2023/04/10 08:00:32;;;;;;;7.45;5.00;;;;;;;10.16;60.74;101626.75;4948953;28;20039;-78
2023/04/10 08:02:57;;;;;;;8.52;5.13;;;;;;;10.27;61.99;101628.34;4947001;28;20032;-77
2023/04/10 08:05:23;;;;;;;8.45;5.20;;;;;;;10.39;61.40;101623.06;4948425;28;20058;-78
2023/04/10 08:07:48;;;;;;;7.75;5.20;;;;;;;10.52;61.73;101620.28;4946985;28;20130;-77
2023/04/10 08:10:13;;;;;;;7.82;5.22;;;;;;;10.65;60.47;101615.78;4946863;28;20031;-77
2023/04/10 08:12:39;;;;;;;7.53;5.10;;;;;;;10.80;60.68;101614.69;4948598;28;20027;-77
2023/04/10 08:15:05;;;;;;;7.63;4.93;;;;;;;10.94;60.17;101615.34;4949456;28;20031;-77
2023/04/10 08:17:30;;;;;;;8.70;5.22;;;;;;;11.08;59.87;101613.44;4944501;28;20081;-77
2023/04/10 08:19:55;;;;;;;7.28;4.85;;;;;;;11.18;58.50;101605.47;4946466;28;20430;-77
2023/04/10 08:22:21;;;;;;;8.73;5.65;;;;;;;11.23;57.35;101608.84;4950137;28;20041;-78
2023/04/10 08:24:46;;;;;;;8.93;5.00;;;;;;;11.24;57.55;101594.94;4949794;28;20098;-77
2023/04/10 08:27:12;;;;;;;8.82;5.18;;;;;;;11.22;57.04;101594.13;4950176;28;20050;-77
2023/04/10 08:29:37;;;;;;;8.60;5.60;;;;;;;11.22;56.71;101602.78;4945684;28;20031;-77
2023/04/10 08:32:03;;;;;;;7.90;5.32;;;;;;;11.21;57.00;101611.47;4949814;28;20133;-78
2023/04/10 08:34:28;;;;;;;7.90;5.53;;;;;;;11.24;56.90;101605.38;4952478;28;20395;-77
2023/04/10 08:36:54;;;;;;;8.52;5.47;;;;;;;11.28;56.18;101612.22;4946728;28;20074;-78
2023/04/10 08:39:19;;;;;;;7.07;5.20;;;;;;;11.31;57.15;101603.53;4948688;28;20038;-78
2023/04/10 08:41:44;;;;;;;8.38;5.18;;;;;;;11.39;58.63;101605.13;4951957;28;20047;-78
2023/04/10 08:44:10;;;;;;;8.65;5.50;;;;;;;11.54;59.68;101603.13;4950945;28;20035;-78
2023/04/10 08:46:40;;;;;;;7.43;5.10;;;;;;;11.68;57.91;101602.88;4952632;28;20043;-78
2023/04/10 08:49:07;;;;;;;8.65;5.30;;;;;;;11.78;58.49;101594.00;4951065;28;20374;-78
2023/04/10 08:51:41;;;;;;;6.55;4.80;;;;;;;11.86;57.09;101591.25;4949891;28;20034;-78
2023/04/10 08:54:13;;;;;;;6.78;4.93;;;;;;;11.94;58.71;101581.53;4940560;28;20047;-78
2023/04/10 08:56:41;;;;;;;7.13;5.22;;;;;;;12.01;58.25;101584.91;4951666;28;20035;-78
2023/04/10 08:59:07;;;;;;;8.68;5.00;;;;;;;12.08;56.79;101585.66;4944555;28;20110;-78
2023/04/10 09:01:34;;;;;;;7.20;4.85;;;;;;;12.12;56.00;101584.72;4942585;28;20061;-78
2023/04/10 09:03:59;;;;;;;7.82;5.47;;;;;;;12.14;56.57;101583.78;4966262;28;20046;-78
2023/04/10 09:06:26;;;;;;;7.47;4.72;;;;;;;12.20;56.58;101581.94;4951032;28;20023;-78
2023/04/10 09:08:51;;;;;;;6.72;4.53;;;;;;;12.22;55.68;101575.78;4947028;28;20163;-78
2023/04/10 09:11:16;;;;;;;8.95;5.13;;;;;;;12.26;56.27;101571.34;4948133;28;20105;-78
2023/04/10 09:13:43;;;;;;;6.78;4.88;;;;;;;12.34;56.21;101579.03;4949612;28;20608;-78
2023/04/10 09:16:10;;;;;;;7.50;5.32;;;;;;;12.40;55.16;101568.47;4953002;28;20506;-78
2023/04/10 09:18:44;;;;;;;6.68;4.57;;;;;;;12.46;56.17;101576.16;4950591;28;20027;-78
2023/04/10 09:21:11;;;;;;;7.65;5.18;;;;;;;12.47;54.61;101564.81;4953547;28;20023;-78
2023/04/10 09:23:36;;;;;;;7.07;5.00;;;;;;;12.48;54.94;101566.53;4952970;28;20051;-78
2023/04/10 09:26:21;;;;;;;6.18;4.53;;;;;;;12.52;56.81;101557.75;4950924;28;20073;-78
2023/04/10 09:29:06;;;;;;;7.13;4.88;;;;;;;12.57;57.47;101550.69;4948868;28;20042;-78
2023/04/10 09:31:33;;;;;;;6.63;4.88;;;;;;;12.55;56.08;101552.47;4951983;28;20106;-78
2023/04/10 09:34:11;;;;;;;7.93;5.00;;;;;;;12.57;57.01;101548.06;4952062;28;20027;-77
2023/04/10 09:36:37;;;;;;;8.18;5.35;;;;;;;12.56;56.24;101541.13;4949525;28;20186;-77
2023/04/10 09:39:06;;;;;;;7.00;5.00;;;;;;;12.59;55.50;101530.63;4949002;28;20016;-78
2023/04/10 09:41:31;;;;;;;6.55;4.80;;;;;;;12.65;56.72;101527.00;4950222;28;20509;-77
2023/04/10 09:44:08;;;;;;;8.05;5.05;;;;;;;12.68;55.87;101526.94;4952678;28;20027;-77
2023/04/10 09:46:34;;;;;;;7.10;5.15;;;;;;;12.68;55.39;101531.28;4946611;28;21515;-77
2023/04/10 09:49:03;;;;;;;8.80;5.25;;;;;;;12.69;56.91;101520.81;4950321;28;20019;-77
2023/04/10 09:51:35;;;;;;;7.72;5.47;;;;;;;12.74;56.76;101499.81;4950712;28;20038;-77
2023/04/10 09:54:02;;;;;;;8.45;5.55;;;;;;;12.81;56.47;101497.91;4950807;28;20027;-77
2023/04/10 09:56:28;;;;;;;7.43;4.68;;;;;;;12.88;55.59;101499.50;4949492;28;20254;-77
2023/04/10 09:58:58;;;;;;;7.95;4.80;;;;;;;12.90;55.56;101492.44;4947978;28;20027;-78
2023/04/10 10:01:25;;;;;;;7.53;5.20;;;;;;;12.93;56.59;101483.69;4948289;28;20038;-78
2023/04/10 10:03:54;;;;;;;7.75;5.00;;;;;;;13.00;56.68;101491.34;4944435;28;20038;-78
2023/04/10 10:06:19;;;;;;;7.18;4.95;;;;;;;13.04;55.97;101484.28;4935814;28;20035;-78
2023/04/10 10:08:45;;;;;;;6.53;5.05;;;;;;;13.10;56.13;101486.75;4938979;28;20033;-78
2023/04/10 10:11:12;;;;;;;6.70;4.70;;;;;;;13.18;57.00;101484.78;4936716;28;20042;-77
2023/04/10 10:13:47;;;;;;;7.60;5.22;;;;;;;13.24;55.67;101482.91;4937968;28;20027;-77
2023/04/10 10:16:34;;;;;;;7.57;5.63;;;;;;;13.28;56.32;101480.16;4943344;28;20038;-76
2023/04/10 10:19:19;;;;;;;6.65;4.80;;;;;;;13.35;57.08;101468.66;4924114;28;20479;-76
2023/04/10 10:21:46;;;;;;;7.60;4.95;;;;;;;13.44;56.53;101470.19;4941286;28;20082;-77
2023/04/10 10:24:12;;;;;;;7.47;5.05;;;;;;;13.49;55.99;101468.28;4938482;28;20053;-77
2023/04/10 10:26:38;;;;;;;6.78;4.93;;;;;;;13.54;55.28;101464.69;4931735;28;20075;-76
2023/04/10 10:29:09;;;;;;;6.10;4.38;;;;;;;13.61;55.22;101454.00;4947336;28;20057;-77
2023/04/10 10:31:36;;;;;;;6.20;4.57;;;;;;;13.69;54.91;101432.88;4946615;28;20446;-77
2023/04/10 10:34:04;;;;;;;7.38;5.05;;;;;;;13.75;54.26;101445.78;4944095;28;20027;-77
2023/04/10 10:36:30;;;;;;;6.07;4.75;;;;;;;13.86;56.48;101435.00;4934809;28;20035;-77
2023/04/10 10:39:34;;;;;;;7.80;4.97;;;;;;;14.01;57.21;101420.59;4942967;28;20040;-77
2023/04/10 10:42:17;;;;;;;6.72;4.97;;;;;;;14.19;54.06;101427.03;4929795;28;20043;-77
2023/04/10 10:44:56;;;;;;;8.02;4.68;;;;;;;14.27;54.80;101425.00;4946623;28;20061;-80
2023/04/10 10:47:26;;;;;;;5.95;4.53;;;;;;;14.34;52.51;101417.84;4948077;28;21237;-76
2023/04/10 10:49:56;;;;;;;6.03;4.20;;;;;;;14.39;52.52;101418.53;4946692;28;20465;-77
2023/04/10 10:52:43;;;;;;;5.80;4.30;;;;;;;14.44;53.36;101415.75;4947474;28;20133;-76
2023/04/10 10:55:20;;;;;;;6.68;4.20;;;;;;;14.47;54.00;101405.19;4945617;28;20079;-76
2023/04/10 10:57:48;;;;;;;6.72;4.47;;;;;;;14.50;53.24;101402.47;4948722;28;20050;-76
2023/04/10 11:00:15;;;;;;;5.72;4.40;;;;;;;14.55;52.85;101397.94;4950039;28;20038;-76
2023/04/10 11:02:40;;;;;;;5.15;3.67;;;;;;;14.65;52.57;101388.00;4941603;28;20035;-77
2023/04/10 11:05:06;;;;;;;5.45;4.00;;;;;;;14.70;51.93;101391.34;4943305;28;20387;-77
2023/04/10 11:07:57;;;;;;;6.30;3.80;;;;;;;14.76;51.53;101384.19;4938832;28;20031;-76
2023/04/10 11:11:01;;;;;;;5.40;3.55;;;;;;;14.80;51.79;101373.53;4943924;28;20039;-77
2023/04/10 11:13:26;;;;;;;5.55;3.40;;;;;;;14.90;49.46;101378.47;4945919;28;20707;-76
2023/04/10 11:15:51;;;;;;;4.55;3.50;;;;;;;15.01;49.28;101368.47;4941703;28;20049;-75
2023/04/10 11:18:19;;;;;;;4.90;3.53;;;;;;;15.10;49.86;101364.66;4945069;28;20062;-75
2023/04/10 11:21:12;;;;;;;4.40;3.10;;;;;;;15.23;50.95;101362.44;4940862;28;20097;-75
2023/04/10 11:23:58;;;;;;;5.22;3.40;;;;;;;15.35;49.97;101355.88;4940498;28;20050;-76
2023/04/10 11:26:32;;;;;;;5.65;3.53;;;;;;;15.43;49.77;101359.06;4934141;28;20514;-76
2023/04/10 11:28:58;;;;;;;4.45;3.40;;;;;;;15.44;47.51;101358.16;4938573;28;20039;-76
2023/04/10 11:31:23;;;;;;;5.75;3.58;;;;;;;15.51;48.77;101346.53;4942723;28;20080;-77
2023/04/10 11:34:09;;;;;;;5.38;4.03;;;;;;;15.60;49.22;101337.44;4939952;28;21312;-75